Time;durP1;ratioP1;P1;durP2;ratioP2;P2;SDS_P1;SDS_P2;PMS_P1;PMS_P2;Temp;Humidity;BMP_temperature;BMP_pressure;BME280_temperature;BME280_humidity;BME280_pressure;Samples;Min_cycle;Max_cycle;Signal;HPM_P1;HPM_P2
2023/07/30 00:02:14;;;;;;;5.78;1.67;;;;;;;;;;4989006;28;20603;-71
2023/07/30 00:04:39;;;;;;;5.80;1.95;;;;;;;;;;4987444;28;20187;-71
2023/07/30 00:07:05;;;;;;;5.85;1.98;;;;;;;;;;4985696;28;20197;-71
2023/07/30 00:09:30;;;;;;;4.13;1.65;;;;;;;;;;4988371;28;20279;-71
2023/07/30 00:11:55;;;;;;;3.47;1.80;;;;;;;;;;5001716;22;20317;-68
2023/07/30 00:14:20;;;;;;;4.05;1.70;;;;;;;;;;4982111;28;20187;-68
2023/07/30 00:16:46;;;;;;;6.53;2.50;;;;;;;;;;4986475;28;20349;-68
2023/07/30 00:19:11;;;;;;;4.95;1.92;;;;;;;;;;4988524;28;20176;-69
2023/07/30 00:21:36;;;;;;;9.65;2.97;;;;;;;;;;4987378;28;21623;-67
2023/07/30 00:24:02;;;;;;;7.97;2.42;;;;;;;;;;4986351;28;20191;-67
2023/07/30 00:26:28;;;;;;;4.68;2.00;;;;;;;;;;4987096;28;20191;-67
2023/07/30 00:28:53;;;;;;;3.83;2.33;;;;;;;;;;4969554;28;20871;-68
2023/07/30 00:31:19;;;;;;;9.18;1.80;;;;;;;;;;4985324;28;20201;-68
2023/07/30 00:33:44;;;;;;;6.40;2.47;;;;;;;;;;4985518;28;20282;-68
2023/07/30 00:36:09;;;;;;;7.18;2.70;;;;;;;;;;4970005;28;20199;-67
2023/07/30 00:38:34;;;;;;;8.57;2.25;;;;;;;;;;4986671;28;20274;-68
2023/07/30 00:40:59;;;;;;;9.82;2.70;;;;;;;;;;4987434;28;20278;-68
2023/07/30 00:43:25;;;;;;;11.27;2.25;;;;;;;;;;4985884;28;20297;-67
2023/07/30 00:45:50;;;;;;;7.57;2.45;;;;;;;;;;4988834;28;20672;-67
2023/07/30 00:48:15;;;;;;;10.15;2.20;;;;;;;;;;4986897;28;20194;-68
2023/07/30 00:50:41;;;;;;;9.68;2.78;;;;;;;;;;4969216;28;20183;-67
2023/07/30 00:53:08;;;;;;;7.82;2.53;;;;;;;;;;4969250;28;20210;-67
2023/07/30 00:55:34;;;;;;;7.93;2.38;;;;;;;;;;4987069;28;20215;-67
2023/07/30 00:58:00;;;;;;;8.40;2.60;;;;;;;;;;4987854;28;20525;-68
2023/07/30 01:00:26;;;;;;;7.85;2.85;;;;;;;;;;4984559;28;20222;-67
2023/07/30 01:02:51;;;;;;;4.25;2.33;;;;;;;;;;4987866;28;20199;-68
2023/07/30 01:05:17;;;;;;;11.25;2.55;;;;;;;;;;4988444;28;20184;-67
2023/07/30 01:07:42;;;;;;;4.05;2.20;;;;;;;;;;4985171;28;20193;-68
2023/07/30 01:10:08;;;;;;;5.75;2.40;;;;;;;;;;4987933;28;20184;-68
2023/07/30 01:12:34;;;;;;;10.38;2.00;;;;;;;;;;4986402;28;20227;-68
2023/07/30 01:14:59;;;;;;;9.95;2.63;;;;;;;;;;4986890;28;20754;-68
2023/07/30 01:17:25;;;;;;;11.10;3.03;;;;;;;;;;4987535;28;20215;-69
2023/07/30 01:19:54;;;;;;;10.30;3.53;;;;;;;;;;4973336;28;20238;-68
2023/07/30 01:22:19;;;;;;;12.13;2.70;;;;;;;;;;4989810;28;20678;-68
2023/07/30 01:24:46;;;;;;;8.23;3.00;;;;;;;;;;4989243;28;20249;-68
2023/07/30 01:27:14;;;;;;;5.40;2.92;;;;;;;;;;4969851;28;20191;-69
2023/07/30 01:29:44;;;;;;;10.93;2.50;;;;;;;;;;4971663;28;20198;-68
2023/07/30 01:32:11;;;;;;;9.00;2.28;;;;;;;;;;4988432;28;20691;-68
2023/07/30 01:34:37;;;;;;;12.10;3.00;;;;;;;;;;4988592;28;20187;-68
2023/07/30 01:37:02;;;;;;;10.30;2.72;;;;;;;;;;4989930;28;20481;-68
2023/07/30 01:39:28;;;;;;;8.25;2.40;;;;;;;;;;4989884;28;20191;-68
2023/07/30 01:41:54;;;;;;;12.48;2.40;;;;;;;;;;4989291;28;20294;-68
2023/07/30 01:44:19;;;;;;;10.48;3.00;;;;;;;;;;4987553;28;20211;-67
2023/07/30 01:46:44;;;;;;;4.55;2.25;;;;;;;;;;4971392;28;20562;-67
2023/07/30 01:49:10;;;;;;;12.18;2.95;;;;;;;;;;4990059;28;20832;-67
2023/07/30 01:51:35;;;;;;;7.60;2.67;;;;;;;;;;4991315;28;20676;-69
2023/07/30 01:54:00;;;;;;;10.52;3.35;;;;;;;;;;4989573;28;20184;-68
2023/07/30 01:56:25;;;;;;;6.65;2.50;;;;;;;;;;4972372;28;20724;-68
2023/07/30 01:58:50;;;;;;;5.75;2.83;;;;;;;;;;4989465;28;20183;-69
2023/07/30 02:01:16;;;;;;;12.98;3.75;;;;;;;;;;4988322;28;20191;-68
2023/07/30 02:03:41;;;;;;;9.18;2.88;;;;;;;;;;4988287;28;20191;-68
2023/07/30 02:06:06;;;;;;;9.90;2.50;;;;;;;;;;4990535;28;21018;-68
2023/07/30 02:08:32;;;;;;;5.55;2.55;;;;;;;;;;4989324;28;20199;-67
2023/07/30 02:10:57;;;;;;;9.93;2.83;;;;;;;;;;4972611;28;20194;-68
2023/07/30 02:13:23;;;;;;;11.63;2.75;;;;;;;;;;4972281;28;21120;-68
2023/07/30 02:15:48;;;;;;;7.40;2.38;;;;;;;;;;4988952;28;20217;-69
2023/07/30 02:18:13;;;;;;;6.60;2.67;;;;;;;;;;4971493;28;20665;-69
2023/07/30 02:20:38;;;;;;;13.38;3.78;;;;;;;;;;4988678;28;21020;-69
2023/07/30 02:23:04;;;;;;;13.40;3.45;;;;;;;;;;4984852;28;20214;-69
2023/07/30 02:25:29;;;;;;;11.52;3.75;;;;;;;;;;4989634;28;20195;-69
2023/07/30 02:27:54;;;;;;;5.25;2.70;;;;;;;;;;4989611;28;20198;-69
2023/07/30 02:30:19;;;;;;;6.35;2.65;;;;;;;;;;4987708;28;20629;-69
2023/07/30 02:32:45;;;;;;;12.85;3.20;;;;;;;;;;4970237;28;20930;-69
2023/07/30 02:35:10;;;;;;;13.63;3.05;;;;;;;;;;4971916;28;20193;-69
2023/07/30 02:37:35;;;;;;;13.60;4.47;;;;;;;;;;4989504;28;20215;-69
2023/07/30 02:40:01;;;;;;;6.85;3.28;;;;;;;;;;4984094;28;20242;-69
2023/07/30 02:42:27;;;;;;;11.80;3.28;;;;;;;;;;4989280;28;20669;-68
2023/07/30 02:44:52;;;;;;;10.90;3.55;;;;;;;;;;4989116;28;20196;-67
2023/07/30 02:47:17;;;;;;;9.82;2.88;;;;;;;;;;4990241;28;20758;-68
2023/07/30 02:49:42;;;;;;;13.60;2.97;;;;;;;;;;4987864;28;20582;-66
2023/07/30 02:52:08;;;;;;;11.77;3.70;;;;;;;;;;4989389;28;20300;-67
2023/07/30 02:54:33;;;;;;;12.00;3.58;;;;;;;;;;4987822;28;20197;-67
2023/07/30 02:56:58;;;;;;;6.20;3.22;;;;;;;;;;4989496;28;20238;-67
2023/07/30 02:59:23;;;;;;;13.15;3.85;;;;;;;;;;4987166;28;20215;-67
2023/07/30 03:01:48;;;;;;;11.68;3.25;;;;;;;;;;4987665;28;20524;-67
2023/07/30 03:04:14;;;;;;;11.77;3.58;;;;;;;;;;4988537;28;20222;-67
2023/07/30 03:06:39;;;;;;;13.85;4.18;;;;;;;;;;4989872;28;20192;-67
2023/07/30 03:09:04;;;;;;;15.15;4.47;;;;;;;;;;4989659;28;20193;-68
2023/07/30 03:11:29;;;;;;;17.58;5.03;;;;;;;;;;4989026;28;20266;-67
2023/07/30 03:13:55;;;;;;;12.45;3.33;;;;;;;;;;4988962;28;20314;-67
2023/07/30 03:16:20;;;;;;;15.88;5.07;;;;;;;;;;4972048;28;20231;-67
2023/07/30 03:18:45;;;;;;;13.65;4.30;;;;;;;;;;4969406;28;20241;-68
2023/07/30 03:21:10;;;;;;;11.27;4.30;;;;;;;;;;4972002;28;20294;-68
2023/07/30 03:23:35;;;;;;;23.30;4.65;;;;;;;;;;4988779;28;20183;-68
2023/07/30 03:26:01;;;;;;;17.05;5.03;;;;;;;;;;4989856;28;20187;-67
2023/07/30 03:28:26;;;;;;;16.80;4.30;;;;;;;;;;4972065;28;20245;-67
2023/07/30 03:30:51;;;;;;;22.25;6.32;;;;;;;;;;4989823;28;20289;-67
2023/07/30 03:33:16;;;;;;;15.57;5.30;;;;;;;;;;4988595;28;20250;-68
2023/07/30 03:35:42;;;;;;;15.80;5.22;;;;;;;;;;4989543;28;20218;-68
2023/07/30 03:38:07;;;;;;;18.80;4.57;;;;;;;;;;4971925;28;20969;-68
2023/07/30 03:40:32;;;;;;;17.30;6.00;;;;;;;;;;4967292;28;20194;-68
2023/07/30 03:42:58;;;;;;;21.83;6.00;;;;;;;;;;4988548;28;20908;-67
2023/07/30 03:45:23;;;;;;;15.65;4.82;;;;;;;;;;4989181;28;20191;-67
2023/07/30 03:47:48;;;;;;;15.52;5.18;;;;;;;;;;4969944;28;20218;-67
2023/07/30 03:50:13;;;;;;;27.65;5.88;;;;;;;;;;4989413;28;20267;-68
2023/07/30 03:52:39;;;;;;;31.60;6.80;;;;;;;;;;4972863;28;20238;-68
2023/07/30 03:55:04;;;;;;;20.58;5.43;;;;;;;;;;4989734;28;20649;-68
2023/07/30 03:57:29;;;;;;;20.25;5.38;;;;;;;;;;4985209;28;20638;-68
2023/07/30 03:59:54;;;;;;;14.90;4.72;;;;;;;;;;4969947;28;20194;-67
2023/07/30 04:02:20;;;;;;;16.52;4.80;;;;;;;;;;4987684;28;20207;-67
2023/07/30 04:04:46;;;;;;;18.90;5.18;;;;;;;;;;4983562;28;20187;-68
2023/07/30 04:07:11;;;;;;;24.23;5.70;;;;;;;;;;4989014;28;20211;-67
2023/07/30 04:09:36;;;;;;;17.98;5.35;;;;;;;;;;4988755;28;20322;-67
2023/07/30 04:12:02;;;;;;;27.40;8.18;;;;;;;;;;4988844;28;20313;-67
2023/07/30 04:14:27;;;;;;;23.60;7.63;;;;;;;;;;4984660;28;20185;-67
2023/07/30 04:16:52;;;;;;;16.10;6.78;;;;;;;;;;4970975;28;20704;-67
2023/07/30 04:19:17;;;;;;;17.08;5.55;;;;;;;;;;4985338;28;20192;-67
2023/07/30 04:21:43;;;;;;;24.10;7.22;;;;;;;;;;4986092;28;20209;-67
2023/07/30 04:24:08;;;;;;;17.52;5.25;;;;;;;;;;4970615;28;20639;-67
2023/07/30 04:26:33;;;;;;;16.98;6.38;;;;;;;;;;4987925;28;20873;-67
2023/07/30 04:28:58;;;;;;;15.80;5.88;;;;;;;;;;4988196;28;20643;-67
2023/07/30 04:31:24;;;;;;;17.58;6.63;;;;;;;;;;4986242;28;21364;-66
2023/07/30 04:33:49;;;;;;;19.85;6.38;;;;;;;;;;4986487;28;20688;-68
2023/07/30 04:36:14;;;;;;;23.15;7.40;;;;;;;;;;4987708;28;20214;-67
2023/07/30 04:38:39;;;;;;;20.63;6.20;;;;;;;;;;4969750;28;20199;-67
2023/07/30 04:41:05;;;;;;;16.75;5.95;;;;;;;;;;4982276;28;20541;-68
2023/07/30 04:43:30;;;;;;;23.00;5.90;;;;;;;;;;4986277;28;20302;-67
2023/07/30 04:45:55;;;;;;;28.70;7.18;;;;;;;;;;4987544;28;20187;-68
2023/07/30 04:48:20;;;;;;;16.55;6.78;;;;;;;;;;4986715;28;20190;-67
2023/07/30 04:50:45;;;;;;;22.50;6.80;;;;;;;;;;4987081;28;20191;-68
2023/07/30 04:53:11;;;;;;;25.55;6.50;;;;;;;;;;4987023;28;20207;-67
2023/07/30 04:55:36;;;;;;;23.40;7.25;;;;;;;;;;4986173;28;20193;-68
2023/07/30 04:58:02;;;;;;;26.20;8.75;;;;;;;;;;4969673;28;20189;-68
2023/07/30 05:00:27;;;;;;;20.23;6.30;;;;;;;;;;4986516;28;20207;-68
2023/07/30 05:02:52;;;;;;;14.32;6.63;;;;;;;;;;4988123;28;20213;-69
2023/07/30 05:05:17;;;;;;;22.70;6.40;;;;;;;;;;4986378;28;21411;-69
2023/07/30 05:07:43;;;;;;;17.67;7.80;;;;;;;;;;4988189;28;20355;-68
2023/07/30 05:10:10;;;;;;;19.02;6.40;;;;;;;;;;4986282;28;20223;-68
2023/07/30 05:12:36;;;;;;;22.88;5.70;;;;;;;;;;4973090;28;20310;-68
2023/07/30 05:15:01;;;;;;;24.70;6.05;;;;;;;;;;5001766;28;20200;-68
2023/07/30 05:17:26;;;;;;;23.33;5.95;;;;;;;;;;4986119;28;20222;-68
2023/07/30 05:19:52;;;;;;;18.65;7.05;;;;;;;;;;4991979;28;20991;-68
2023/07/30 05:22:17;;;;;;;20.92;6.20;;;;;;;;;;4985747;28;20207;-68
2023/07/30 05:24:42;;;;;;;22.60;6.40;;;;;;;;;;4987148;28;20195;-68
2023/07/30 05:27:07;;;;;;;13.95;5.93;;;;;;;;;;4988662;28;20190;-69
2023/07/30 05:29:33;;;;;;;17.67;6.22;;;;;;;;;;4985005;28;20242;-68
2023/07/30 05:31:58;;;;;;;19.42;6.20;;;;;;;;;;4984929;28;20205;-68
2023/07/30 05:34:23;;;;;;;22.20;6.45;;;;;;;;;;4968332;28;20200;-69
2023/07/30 05:36:48;;;;;;;19.05;6.20;;;;;;;;;;4982931;28;20211;-68
2023/07/30 05:39:14;;;;;;;20.25;6.80;;;;;;;;;;4985577;28;20191;-68
2023/07/30 05:41:39;;;;;;;22.30;7.03;;;;;;;;;;4985443;28;20219;-68
2023/07/30 05:44:04;;;;;;;18.45;6.07;;;;;;;;;;4965680;28;20321;-67
2023/07/30 05:46:29;;;;;;;19.10;7.28;;;;;;;;;;4968950;28;20250;-68
2023/07/30 05:48:55;;;;;;;15.02;6.38;;;;;;;;;;4987560;28;20219;-67
2023/07/30 05:51:20;;;;;;;20.75;6.38;;;;;;;;;;4984818;28;20278;-68
2023/07/30 05:53:45;;;;;;;21.38;6.97;;;;;;;;;;4985258;28;20270;-67
2023/07/30 05:56:12;;;;;;;16.08;6.50;;;;;;;;;;4986005;28;20212;-67
2023/07/30 05:58:38;;;;;;;15.38;5.80;;;;;;;;;;4969481;28;20227;-67
2023/07/30 06:01:03;;;;;;;17.13;6.15;;;;;;;;;;4981295;28;20278;-68
2023/07/30 06:03:28;;;;;;;19.33;6.55;;;;;;;;;;4987012;28;20234;-68
2023/07/30 06:05:53;;;;;;;14.48;5.63;;;;;;;;;;4988670;28;20186;-68
2023/07/30 06:08:19;;;;;;;20.52;6.13;;;;;;;;;;4990899;28;20199;-68
2023/07/30 06:10:44;;;;;;;17.30;5.95;;;;;;;;;;4989239;28;20186;-68
2023/07/30 06:13:09;;;;;;;18.75;5.45;;;;;;;;;;5023418;23;20233;-73
2023/07/30 06:15:34;;;;;;;10.27;4.70;;;;;;;;;;5027921;28;20674;-70
2023/07/30 06:18:03;;;;;;;13.23;4.25;;;;;;;;;;5029288;28;20227;-71
2023/07/30 06:20:28;;;;;;;15.52;4.93;;;;;;;;;;5029693;28;20273;-70
2023/07/30 06:22:53;;;;;;;16.75;4.63;;;;;;;;;;5019132;28;20572;-71
2023/07/30 06:25:19;;;;;;;17.02;5.10;;;;;;;;;;5003103;28;22030;-71
2023/07/30 06:27:44;;;;;;;10.18;4.20;;;;;;;;;;5009931;28;20214;-70
2023/07/30 06:30:09;;;;;;;15.55;4.75;;;;;;;;;;5009605;28;20191;-71
2023/07/30 06:32:35;;;;;;;13.07;4.28;;;;;;;;;;5008510;28;20214;-72
2023/07/30 06:35:00;;;;;;;26.63;3.92;;;;;;;;;;5009573;28;20563;-72
2023/07/30 06:37:25;;;;;;;12.35;3.58;;;;;;;;;;5008904;28;20214;-71
2023/07/30 06:39:50;;;;;;;23.13;4.53;;;;;;;;;;5009020;28;20190;-71
2023/07/30 06:42:15;;;;;;;14.77;3.50;;;;;;;;;;5007011;28;20988;-71
2023/07/30 06:44:41;;;;;;;11.95;3.10;;;;;;;;;;5008518;28;20285;-70
2023/07/30 06:47:06;;;;;;;11.35;3.53;;;;;;;;;;5007828;28;20269;-70
2023/07/30 06:49:33;;;;;;;16.88;3.60;;;;;;;;;;5009976;28;20312;-71
2023/07/30 06:51:59;;;;;;;18.77;4.75;;;;;;;;;;5008269;28;20590;-70
2023/07/30 06:54:24;;;;;;;13.40;4.28;;;;;;;;;;5007398;28;20183;-70
2023/07/30 06:56:49;;;;;;;13.10;3.63;;;;;;;;;;5008847;28;20232;-71
2023/07/30 06:59:15;;;;;;;16.77;4.35;;;;;;;;;;5009276;28;20226;-71
2023/07/30 07:01:40;;;;;;;19.02;5.65;;;;;;;;;;5001696;28;20939;-71
2023/07/30 07:04:05;;;;;;;12.43;4.07;;;;;;;;;;5006929;28;20191;-70
2023/07/30 07:06:30;;;;;;;14.48;5.05;;;;;;;;;;5007906;28;20201;-71
2023/07/30 07:08:55;;;;;;;15.40;4.28;;;;;;;;;;5005246;28;20568;-70
2023/07/30 07:11:21;;;;;;;11.43;4.53;;;;;;;;;;5010030;28;20190;-71
2023/07/30 07:13:46;;;;;;;11.07;3.60;;;;;;;;;;5008061;28;20222;-71
2023/07/30 07:16:11;;;;;;;14.52;4.22;;;;;;;;;;5009256;28;20229;-70
2023/07/30 07:18:36;;;;;;;12.82;3.80;;;;;;;;;;5007266;28;20178;-71
2023/07/30 07:21:02;;;;;;;12.13;4.13;;;;;;;;;;5007733;28;20249;-70
2023/07/30 07:23:27;;;;;;;17.77;4.72;;;;;;;;;;5006103;28;20298;-72
2023/07/30 07:25:53;;;;;;;14.68;4.15;;;;;;;;;;5003758;28;20285;-71
2023/07/30 07:28:18;;;;;;;15.02;3.90;;;;;;;;;;5004789;28;20198;-71
2023/07/30 07:30:44;;;;;;;16.20;4.05;;;;;;;;;;5007602;28;20236;-70
2023/07/30 07:33:12;;;;;;;13.80;4.07;;;;;;;;;;5003937;28;20340;-72
2023/07/30 07:35:37;;;;;;;17.02;4.72;;;;;;;;;;5007974;28;20190;-71
2023/07/30 07:38:03;;;;;;;16.17;4.22;;;;;;;;;;5006133;28;20182;-71
2023/07/30 07:40:28;;;;;;;13.45;5.30;;;;;;;;;;5007577;28;20229;-71
2023/07/30 07:42:54;;;;;;;14.68;5.20;;;;;;;;;;5006211;28;20211;-71
2023/07/30 07:45:19;;;;;;;11.73;4.93;;;;;;;;;;5007792;28;20183;-71
2023/07/30 07:47:45;;;;;;;12.57;4.55;;;;;;;;;;5005637;28;20236;-71
2023/07/30 07:50:10;;;;;;;10.05;3.80;;;;;;;;;;5004605;28;20183;-71
2023/07/30 07:52:35;;;;;;;26.10;5.47;;;;;;;;;;5008307;28;20234;-71
2023/07/30 07:55:00;;;;;;;15.48;4.38;;;;;;;;;;5007507;28;20195;-70
2023/07/30 07:57:26;;;;;;;11.48;3.85;;;;;;;;;;5005455;28;20275;-71
2023/07/30 07:59:51;;;;;;;11.87;3.57;;;;;;;;;;5006115;28;20223;-72
2023/07/30 08:02:16;;;;;;;12.43;3.67;;;;;;;;;;5007005;28;20466;-72
2023/07/30 08:04:42;;;;;;;10.50;3.50;;;;;;;;;;5006908;28;20580;-71
2023/07/30 08:07:07;;;;;;;15.38;3.90;;;;;;;;;;5005298;28;20183;-72
2023/07/30 08:09:32;;;;;;;6.95;2.83;;;;;;;;;;5007305;28;20189;-71
2023/07/30 08:11:59;;;;;;;13.23;3.70;;;;;;;;;;5007238;28;20235;-71
2023/07/30 08:14:24;;;;;;;8.50;2.72;;;;;;;;;;5007040;28;20206;-72
2023/07/30 08:16:49;;;;;;;9.70;2.60;;;;;;;;;;5006839;28;20214;-71
2023/07/30 08:19:14;;;;;;;9.13;2.40;;;;;;;;;;5008037;28;20174;-71
2023/07/30 08:21:40;;;;;;;8.57;2.47;;;;;;;;;;5005276;28;20179;-71
2023/07/30 08:24:05;;;;;;;8.65;2.78;;;;;;;;;;5006757;28;20187;-71
2023/07/30 08:26:31;;;;;;;9.18;2.65;;;;;;;;;;5007377;28;20183;-70
2023/07/30 08:28:56;;;;;;;10.95;3.17;;;;;;;;;;5000301;28;20190;-71
2023/07/30 08:31:22;;;;;;;14.18;3.40;;;;;;;;;;5005895;28;20846;-70
2023/07/30 08:33:47;;;;;;;14.27;4.07;;;;;;;;;;5007590;28;20219;-70
2023/07/30 08:36:12;;;;;;;12.43;3.55;;;;;;;;;;5008454;28;20202;-70
2023/07/30 08:38:39;;;;;;;10.63;3.38;;;;;;;;;;5006016;28;20186;-70
2023/07/30 08:41:04;;;;;;;12.30;3.22;;;;;;;;;;5007881;28;20652;-71
2023/07/30 08:43:29;;;;;;;10.05;2.55;;;;;;;;;;5006128;28;20255;-70
2023/07/30 08:45:54;;;;;;;8.68;2.40;;;;;;;;;;5007433;28;20247;-73
2023/07/30 08:48:20;;;;;;;10.18;3.10;;;;;;;;;;5007777;28;20194;-70
2023/07/30 08:50:45;;;;;;;7.97;2.65;;;;;;;;;;5009914;28;20209;-72
2023/07/30 08:53:11;;;;;;;13.02;3.63;;;;;;;;;;5006860;28;20206;-71
2023/07/30 08:55:38;;;;;;;11.32;2.65;;;;;;;;;;5007704;28;20194;-71
2023/07/30 08:58:04;;;;;;;11.90;3.17;;;;;;;;;;5007822;28;20196;-70
2023/07/30 09:00:31;;;;;;;11.95;2.88;;;;;;;;;;5007546;28;20182;-73
2023/07/30 09:02:58;;;;;;;11.77;3.47;;;;;;;;;;5008446;28;20210;-71
2023/07/30 09:05:23;;;;;;;7.80;2.53;;;;;;;;;;5004950;28;21027;-71
2023/07/30 09:07:49;;;;;;;10.52;3.08;;;;;;;;;;5006780;28;21573;-71
2023/07/30 09:10:14;;;;;;;7.57;2.72;;;;;;;;;;5007214;28;20552;-71
2023/07/30 09:12:40;;;;;;;9.32;2.22;;;;;;;;;;5006618;28;20731;-73
2023/07/30 09:15:06;;;;;;;8.00;2.53;;;;;;;;;;5005563;28;20198;-71
2023/07/30 09:17:31;;;;;;;13.77;3.58;;;;;;;;;;5007561;28;20308;-72
2023/07/30 09:19:58;;;;;;;8.52;1.98;;;;;;;;;;5004825;28;21084;-71
2023/07/30 09:22:25;;;;;;;9.30;2.67;;;;;;;;;;5007403;28;20206;-72
2023/07/30 09:24:50;;;;;;;7.57;2.13;;;;;;;;;;5005767;28;20178;-73
2023/07/30 09:27:22;;;;;;;6.90;2.28;;;;;;;;;;5008028;28;20187;-72
2023/07/30 09:29:52;;;;;;;8.70;2.13;;;;;;;;;;5006173;28;20191;-72
2023/07/30 09:32:17;;;;;;;7.45;2.30;;;;;;;;;;5007685;28;20210;-71
2023/07/30 09:34:44;;;;;;;5.47;2.05;;;;;;;;;;5008020;28;20187;-71
2023/07/30 09:37:09;;;;;;;9.85;1.85;;;;;;;;;;5008131;28;20598;-71
2023/07/30 09:39:37;;;;;;;7.35;1.98;;;;;;;;;;5008030;28;20186;-71
2023/07/30 09:42:02;;;;;;;7.90;1.70;;;;;;;;;;5005714;28;20337;-69
2023/07/30 09:44:28;;;;;;;8.35;1.95;;;;;;;;;;5008677;28;20240;-71
2023/07/30 09:46:53;;;;;;;8.45;1.70;;;;;;;;;;5008207;28;20191;-70
2023/07/30 09:49:18;;;;;;;6.38;1.33;;;;;;;;;;5006229;28;20323;-71
2023/07/30 09:51:44;;;;;;;4.05;1.30;;;;;;;;;;5028771;28;20200;-70
2023/07/30 09:54:10;;;;;;;5.80;1.27;;;;;;;;;;5007362;28;20237;-71
2023/07/30 09:56:36;;;;;;;4.95;1.15;;;;;;;;;;5008687;28;20211;-73
2023/07/30 09:59:01;;;;;;;4.40;1.55;;;;;;;;;;5009600;28;20873;-71
2023/07/30 10:01:28;;;;;;;6.40;1.65;;;;;;;;;;5010934;28;20690;-71
2023/07/30 10:03:55;;;;;;;3.88;1.40;;;;;;;;;;5011369;28;20198;-71
2023/07/30 10:06:23;;;;;;;6.38;1.10;;;;;;;;;;5013064;28;20197;-71
2023/07/30 10:08:49;;;;;;;6.65;1.48;;;;;;;;;;5010726;28;20189;-72
2023/07/30 10:11:14;;;;;;;4.00;1.00;;;;;;;;;;5013690;28;20195;-70
2023/07/30 10:13:40;;;;;;;6.80;1.40;;;;;;;;;;5012399;28;20234;-69
2023/07/30 10:16:09;;;;;;;7.30;1.38;;;;;;;;;;5012056;28;20333;-70
2023/07/30 10:18:39;;;;;;;1.90;0.90;;;;;;;;;;5010770;28;20183;-70
2023/07/30 10:21:06;;;;;;;3.67;1.08;;;;;;;;;;5012536;28;20226;-72
2023/07/30 10:23:32;;;;;;;7.22;1.35;;;;;;;;;;5011554;28;20293;-72
2023/07/30 10:25:58;;;;;;;3.30;0.82;;;;;;;;;;5009964;28;20183;-70
2023/07/30 10:28:29;;;;;;;7.22;1.50;;;;;;;;;;5011098;28;20218;-71
2023/07/30 10:31:01;;;;;;;5.78;1.25;;;;;;;;;;5011088;28;20191;-69
2023/07/30 10:33:46;;;;;;;3.10;0.95;;;;;;;;;;5010758;28;20214;-72
2023/07/30 10:36:11;;;;;;;7.47;1.10;;;;;;;;;;5008289;28;20207;-70
2023/07/30 10:38:36;;;;;;;3.03;1.20;;;;;;;;;;5009585;28;20194;-70
2023/07/30 10:41:05;;;;;;;6.13;1.20;;;;;;;;;;5007025;28;20194;-71
2023/07/30 10:43:31;;;;;;;5.00;1.00;;;;;;;;;;5008969;28;20207;-70
2023/07/30 10:45:56;;;;;;;4.95;1.23;;;;;;;;;;5009287;28;20633;-71
2023/07/30 10:48:32;;;;;;;4.00;1.08;;;;;;;;;;5009596;28;21492;-70
2023/07/30 10:50:58;;;;;;;2.28;0.80;;;;;;;;;;5007396;28;20222;-71
2023/07/30 10:53:23;;;;;;;4.53;1.00;;;;;;;;;;5008386;28;20356;-70
2023/07/30 10:55:48;;;;;;;5.93;1.17;;;;;;;;;;5011282;28;20187;-72
2023/07/30 10:58:14;;;;;;;2.30;1.05;;;;;;;;;;5009437;28;20189;-71
2023/07/30 11:00:39;;;;;;;3.70;0.98;;;;;;;;;;5008497;28;20198;-70
2023/07/30 11:03:04;;;;;;;4.45;1.20;;;;;;;;;;5008133;28;20206;-70
2023/07/30 11:05:30;;;;;;;5.55;1.55;;;;;;;;;;5009387;28;20190;-71
2023/07/30 11:07:56;;;;;;;4.57;1.17;;;;;;;;;;5008535;28;20186;-70
2023/07/30 11:10:21;;;;;;;6.72;1.05;;;;;;;;;;5007782;28;20312;-70
2023/07/30 11:12:49;;;;;;;4.93;1.25;;;;;;;;;;5007391;28;20312;-70
2023/07/30 11:15:14;;;;;;;3.25;0.90;;;;;;;;;;5009336;28;20255;-70
2023/07/30 11:17:39;;;;;;;4.20;1.23;;;;;;;;;;5009449;28;20687;-70
2023/07/30 11:20:05;;;;;;;2.63;0.80;;;;;;;;;;5008823;28;20216;-69
2023/07/30 11:22:31;;;;;;;4.60;1.38;;;;;;;;;;5007593;28;20448;-70
2023/07/30 11:24:57;;;;;;;6.97;1.13;;;;;;;;;;5008504;28;20196;-71
2023/07/30 11:27:22;;;;;;;3.28;1.13;;;;;;;;;;5008607;28;20220;-69
2023/07/30 11:29:54;;;;;;;7.47;1.75;;;;;;;;;;5008965;28;20190;-69
2023/07/30 11:32:19;;;;;;;4.65;1.13;;;;;;;;;;5007373;28;20464;-71
2023/07/30 11:34:45;;;;;;;4.50;1.17;;;;;;;;;;5009815;28;20186;-71
2023/07/30 11:37:10;;;;;;;5.15;1.00;;;;;;;;;;5008592;28;20217;-71
2023/07/30 11:39:35;;;;;;;4.43;0.80;;;;;;;;;;5009219;28;20294;-70
2023/07/30 11:42:01;;;;;;;3.75;0.80;;;;;;;;;;5009971;28;20210;-69
2023/07/30 11:44:30;;;;;;;7.25;0.88;;;;;;;;;;5007404;28;20217;-72
2023/07/30 11:46:55;;;;;;;5.28;0.90;;;;;;;;;;5008535;28;20252;-71
2023/07/30 11:49:21;;;;;;;6.60;0.80;;;;;;;;;;5006429;28;20190;-72
2023/07/30 11:51:48;;;;;;;4.25;1.52;;;;;;;;;;5007629;28;20187;-72
2023/07/30 11:54:20;;;;;;;4.63;1.20;;;;;;;;;;5006940;28;20186;-72
2023/07/30 11:56:46;;;;;;;5.95;1.30;;;;;;;;;;5004425;28;20252;-71
2023/07/30 11:59:12;;;;;;;5.85;1.90;;;;;;;;;;5007234;28;20619;-72
2023/07/30 12:01:37;;;;;;;3.08;1.00;;;;;;;;;;5008529;28;20187;-70
2023/07/30 12:04:03;;;;;;;7.15;1.17;;;;;;;;;;5009275;28;20190;-71
2023/07/30 12:06:47;;;;;;;4.78;1.10;;;;;;;;;;5010687;28;20206;-69
2023/07/30 12:09:14;;;;;;;3.50;1.05;;;;;;;;;;5008770;28;20189;-72
2023/07/30 12:14:30;;;;;;;4.70;1.05;;;;;;;;;;4984221;28;20243;-68
2023/07/30 12:16:58;;;;;;;4.05;0.73;;;;;;;;;;4989646;28;20330;-68
2023/07/30 12:19:23;;;;;;;6.07;1.20;;;;;;;;;;4987942;28;20888;-68
2023/07/30 12:21:49;;;;;;;8.93;1.33;;;;;;;;;;4990217;28;20190;-68
2023/07/30 12:24:14;;;;;;;2.63;1.10;;;;;;;;;;4986121;28;20788;-65
2023/07/30 12:26:39;;;;;;;6.25;1.02;;;;;;;;;;4989552;28;20760;-67
2023/07/30 12:29:04;;;;;;;2.50;0.90;;;;;;;;;;4989216;28;20187;-66
2023/07/30 12:31:30;;;;;;;4.05;1.10;;;;;;;;;;4987645;28;20252;-66
2023/07/30 12:33:55;;;;;;;8.93;1.33;;;;;;;;;;4987388;28;20214;-68
2023/07/30 12:36:20;;;;;;;6.80;2.42;;;;;;;;;;4987634;28;20362;-66
2023/07/30 12:38:45;;;;;;;7.32;1.40;;;;;;;;;;4988851;28;20213;-67
2023/07/30 12:41:11;;;;;;;5.45;1.00;;;;;;;;;;4988916;28;20222;-67
2023/07/30 12:43:36;;;;;;;5.55;1.17;;;;;;;;;;4988760;28;20286;-67
2023/07/30 12:46:01;;;;;;;8.63;1.45;;;;;;;;;;4988934;28;20238;-67
2023/07/30 12:48:26;;;;;;;4.80;0.80;;;;;;;;;;4988744;28;20198;-67
2023/07/30 12:50:52;;;;;;;2.25;0.98;;;;;;;;;;4987090;28;20194;-68
2023/07/30 12:53:17;;;;;;;2.13;0.88;;;;;;;;;;4988833;28;20245;-68
2023/07/30 12:55:42;;;;;;;5.28;0.80;;;;;;;;;;4988236;28;20557;-67
2023/07/30 12:58:07;;;;;;;3.97;1.02;;;;;;;;;;4988080;28;20559;-68
2023/07/30 13:00:33;;;;;;;4.15;0.90;;;;;;;;;;4989158;28;20183;-67
2023/07/30 13:02:59;;;;;;;7.40;1.38;;;;;;;;;;4988991;28;20202;-68
2023/07/30 13:05:24;;;;;;;3.47;1.00;;;;;;;;;;4986756;28;20198;-68
2023/07/30 13:07:49;;;;;;;3.38;0.75;;;;;;;;;;4986534;28;20199;-67
2023/07/30 13:10:15;;;;;;;2.85;0.50;;;;;;;;;;4987065;28;20815;-68
2023/07/30 13:12:40;;;;;;;5.00;0.73;;;;;;;;;;4985051;28;20646;-68
2023/07/30 13:15:06;;;;;;;3.97;0.60;;;;;;;;;;4990371;28;21036;-67
2023/07/30 13:17:31;;;;;;;3.78;0.80;;;;;;;;;;4990855;28;20203;-68
2023/07/30 13:19:57;;;;;;;6.22;0.82;;;;;;;;;;4988479;28;20180;-67
2023/07/30 13:22:22;;;;;;;1.80;0.63;;;;;;;;;;4991511;28;20206;-67
2023/07/30 13:24:47;;;;;;;3.73;1.03;;;;;;;;;;4990590;28;20881;-68
2023/07/30 13:27:12;;;;;;;3.53;0.95;;;;;;;;;;4990407;28;20452;-67
2023/07/30 13:29:37;;;;;;;4.20;0.77;;;;;;;;;;4992224;28;20657;-68
2023/07/30 13:32:03;;;;;;;3.22;0.65;;;;;;;;;;4992308;28;20592;-68
2023/07/30 13:34:28;;;;;;;2.13;0.47;;;;;;;;;;4990474;28;20629;-67
2023/07/30 13:36:53;;;;;;;2.42;0.90;;;;;;;;;;4988036;28;20218;-67
2023/07/30 13:39:19;;;;;;;3.95;0.98;;;;;;;;;;4990204;28;21088;-67
2023/07/30 13:41:44;;;;;;;3.42;0.93;;;;;;;;;;4986767;28;20192;-66
2023/07/30 13:44:10;;;;;;;2.85;0.95;;;;;;;;;;4988637;28;20221;-67
2023/07/30 13:46:36;;;;;;;3.92;1.10;;;;;;;;;;4990777;28;20187;-68
2023/07/30 13:49:02;;;;;;;3.85;0.77;;;;;;;;;;4989382;28;20537;-66
2023/07/30 13:51:31;;;;;;;4.28;0.90;;;;;;;;;;4989052;28;20192;-68
2023/07/30 13:53:57;;;;;;;4.45;0.68;;;;;;;;;;4988594;28;20209;-68
2023/07/30 13:56:22;;;;;;;2.22;0.80;;;;;;;;;;4989876;28;20203;-66
2023/07/30 13:58:47;;;;;;;3.63;0.90;;;;;;;;;;4990725;28;21395;-67
2023/07/30 14:01:13;;;;;;;6.15;0.90;;;;;;;;;;4987486;28;20863;-68
2023/07/30 14:03:38;;;;;;;4.07;0.98;;;;;;;;;;4991492;28;20762;-67
2023/07/30 14:06:04;;;;;;;3.13;0.73;;;;;;;;;;4992089;28;20184;-68
2023/07/30 14:08:29;;;;;;;5.93;1.00;;;;;;;;;;4991923;28;20191;-67
2023/07/30 14:10:54;;;;;;;2.45;0.90;;;;;;;;;;4991398;28;20197;-66
2023/07/30 14:13:19;;;;;;;5.40;1.05;;;;;;;;;;4991631;28;20229;-66
2023/07/30 14:15:45;;;;;;;5.00;1.05;;;;;;;;;;4991269;28;20202;-67
2023/07/30 14:18:10;;;;;;;5.13;1.10;;;;;;;;;;4991151;28;20270;-66
2023/07/30 14:20:37;;;;;;;5.68;1.00;;;;;;;;;;4992037;28;20186;-67
2023/07/30 14:23:04;;;;;;;4.63;0.98;;;;;;;;;;4990268;28;20207;-68
2023/07/30 14:25:29;;;;;;;6.10;1.02;;;;;;;;;;4988849;28;20240;-67
2023/07/30 14:27:54;;;;;;;7.38;1.75;;;;;;;;;;4991650;28;20350;-67
2023/07/30 14:30:20;;;;;;;9.07;1.83;;;;;;;;;;4991034;28;20199;-67